sensor_id;sensor_type;location;lat;lon;timestamp;pressure;altitude;pressure_sealevel;temperature
11792;BMP180;5953;52.372;9.918;2023-07-09T00:01:13;101207.00;;;26.70
11792;BMP180;5953;52.372;9.918;2023-07-09T00:03:44;101208.00;;;26.80
11792;BMP180;5953;52.372;9.918;2023-07-09T00:06:14;101209.00;;;26.70
11792;BMP180;5953;52.372;9.918;2023-07-09T00:08:44;101208.00;;;26.50
11792;BMP180;5953;52.372;9.918;2023-07-09T00:11:14;101209.00;;;26.40
11792;BMP180;5953;52.372;9.918;2023-07-09T00:13:41;101206.00;;;26.20
11792;BMP180;5953;52.372;9.918;2023-07-09T00:18:34;101212.00;;;26.20
11792;BMP180;5953;52.372;9.918;2023-07-09T00:21:02;101211.00;;;26.10
11792;BMP180;5953;52.372;9.918;2023-07-09T00:23:31;101216.00;;;26.00
11792;BMP180;5953;52.372;9.918;2023-07-09T00:25:59;101208.00;;;26.20
11792;BMP180;5953;52.372;9.918;2023-07-09T00:28:30;101214.00;;;26.30
11792;BMP180;5953;52.372;9.918;2023-07-09T00:30:58;101213.00;;;26.00
11792;BMP180;5953;52.372;9.918;2023-07-09T00:33:26;101207.00;;;25.80
11792;BMP180;5953;52.372;9.918;2023-07-09T00:35:58;101214.00;;;25.90
11792;BMP180;5953;52.372;9.918;2023-07-09T00:38:26;101208.00;;;26.00
11792;BMP180;5953;52.372;9.918;2023-07-09T00:41:03;101204.00;;;26.10
11792;BMP180;5953;52.372;9.918;2023-07-09T00:43:34;101207.00;;;25.70
11792;BMP180;5953;52.372;9.918;2023-07-09T00:46:16;101210.00;;;25.80
11792;BMP180;5953;52.372;9.918;2023-07-09T00:48:45;101212.00;;;25.70
11792;BMP180;5953;52.372;9.918;2023-07-09T00:51:17;101205.00;;;25.70
11792;BMP180;5953;52.372;9.918;2023-07-09T00:53:49;101203.00;;;25.70
11792;BMP180;5953;52.372;9.918;2023-07-09T00:56:26;101203.00;;;25.60
11792;BMP180;5953;52.372;9.918;2023-07-09T00:58:55;101198.00;;;25.60
11792;BMP180;5953;52.372;9.918;2023-07-09T01:01:24;101195.00;;;25.60
11792;BMP180;5953;52.372;9.918;2023-07-09T01:03:53;101196.00;;;25.70
11792;BMP180;5953;52.372;9.918;2023-07-09T01:06:27;101188.00;;;25.80
11792;BMP180;5953;52.372;9.918;2023-07-09T01:08:59;101194.00;;;25.70
11792;BMP180;5953;52.372;9.918;2023-07-09T01:11:31;101189.00;;;25.70
11792;BMP180;5953;52.372;9.918;2023-07-09T01:14:01;101187.00;;;25.50
11792;BMP180;5953;52.372;9.918;2023-07-09T01:16:33;101186.00;;;25.40
11792;BMP180;5953;52.372;9.918;2023-07-09T01:19:01;101187.00;;;25.40
11792;BMP180;5953;52.372;9.918;2023-07-09T01:21:32;101186.00;;;25.40
11792;BMP180;5953;52.372;9.918;2023-07-09T01:24:12;101181.00;;;25.30
11792;BMP180;5953;52.372;9.918;2023-07-09T01:26:41;101176.00;;;25.30
11792;BMP180;5953;52.372;9.918;2023-07-09T01:29:10;101183.00;;;25.20
11792;BMP180;5953;52.372;9.918;2023-07-09T01:31:38;101193.00;;;25.20
11792;BMP180;5953;52.372;9.918;2023-07-09T01:34:06;101199.00;;;25.10
11792;BMP180;5953;52.372;9.918;2023-07-09T01:36:35;101198.00;;;25.10
11792;BMP180;5953;52.372;9.918;2023-07-09T01:39:06;101194.00;;;25.10
11792;BMP180;5953;52.372;9.918;2023-07-09T01:41:34;101191.00;;;25.00
11792;BMP180;5953;52.372;9.918;2023-07-09T01:44:02;101194.00;;;25.30
11792;BMP180;5953;52.372;9.918;2023-07-09T01:46:31;101187.00;;;25.30
11792;BMP180;5953;52.372;9.918;2023-07-09T01:48:59;101189.00;;;24.90
11792;BMP180;5953;52.372;9.918;2023-07-09T01:51:27;101194.00;;;25.10
11792;BMP180;5953;52.372;9.918;2023-07-09T01:53:56;101186.00;;;25.20
11792;BMP180;5953;52.372;9.918;2023-07-09T01:56:26;101184.00;;;25.10
11792;BMP180;5953;52.372;9.918;2023-07-09T01:58:54;101175.00;;;25.00
11792;BMP180;5953;52.372;9.918;2023-07-09T02:01:28;101183.00;;;25.00
11792;BMP180;5953;52.372;9.918;2023-07-09T02:03:56;101181.00;;;24.80
11792;BMP180;5953;52.372;9.918;2023-07-09T02:06:24;101175.00;;;24.70
11792;BMP180;5953;52.372;9.918;2023-07-09T02:08:52;101179.00;;;24.70
11792;BMP180;5953;52.372;9.918;2023-07-09T02:11:21;101171.00;;;24.80
11792;BMP180;5953;52.372;9.918;2023-07-09T02:13:49;101177.00;;;24.80
11792;BMP180;5953;52.372;9.918;2023-07-09T02:16:16;101175.00;;;24.60
11792;BMP180;5953;52.372;9.918;2023-07-09T02:18:44;101184.00;;;24.50
11792;BMP180;5953;52.372;9.918;2023-07-09T02:21:12;101183.00;;;24.50
11792;BMP180;5953;52.372;9.918;2023-07-09T02:23:40;101179.00;;;24.40
11792;BMP180;5953;52.372;9.918;2023-07-09T02:26:08;101185.00;;;24.40
11792;BMP180;5953;52.372;9.918;2023-07-09T02:28:37;101192.00;;;24.40
11792;BMP180;5953;52.372;9.918;2023-07-09T02:31:05;101194.00;;;24.30
11792;BMP180;5953;52.372;9.918;2023-07-09T02:33:34;101205.00;;;24.30
11792;BMP180;5953;52.372;9.918;2023-07-09T02:36:02;101195.00;;;24.30
11792;BMP180;5953;52.372;9.918;2023-07-09T02:38:30;101192.00;;;24.40
11792;BMP180;5953;52.372;9.918;2023-07-09T02:40:58;101197.00;;;24.50
11792;BMP180;5953;52.372;9.918;2023-07-09T02:43:26;101209.00;;;24.50
11792;BMP180;5953;52.372;9.918;2023-07-09T02:45:55;101201.00;;;24.60
11792;BMP180;5953;52.372;9.918;2023-07-09T02:48:23;101191.00;;;24.50
11792;BMP180;5953;52.372;9.918;2023-07-09T02:50:51;101199.00;;;24.20
11792;BMP180;5953;52.372;9.918;2023-07-09T02:53:18;101205.00;;;24.10
11792;BMP180;5953;52.372;9.918;2023-07-09T02:55:46;101194.00;;;24.20
11792;BMP180;5953;52.372;9.918;2023-07-09T02:58:14;101197.00;;;24.30
11792;BMP180;5953;52.372;9.918;2023-07-09T03:00:42;101192.00;;;24.30
11792;BMP180;5953;52.372;9.918;2023-07-09T03:03:11;101184.00;;;24.10
11792;BMP180;5953;52.372;9.918;2023-07-09T03:05:39;101194.00;;;24.00
11792;BMP180;5953;52.372;9.918;2023-07-09T03:08:07;101189.00;;;24.00
11792;BMP180;5953;52.372;9.918;2023-07-09T03:10:35;101186.00;;;23.80
11792;BMP180;5953;52.372;9.918;2023-07-09T03:13:03;101185.00;;;23.80
11792;BMP180;5953;52.372;9.918;2023-07-09T03:15:31;101185.00;;;23.80
11792;BMP180;5953;52.372;9.918;2023-07-09T03:17:58;101186.00;;;23.80
11792;BMP180;5953;52.372;9.918;2023-07-09T03:20:28;101184.00;;;23.50
11792;BMP180;5953;52.372;9.918;2023-07-09T03:22:56;101188.00;;;23.50
11792;BMP180;5953;52.372;9.918;2023-07-09T03:25:23;101189.00;;;23.50
11792;BMP180;5953;52.372;9.918;2023-07-09T03:27:51;101188.00;;;23.50
11792;BMP180;5953;52.372;9.918;2023-07-09T03:30:19;101191.00;;;23.40
11792;BMP180;5953;52.372;9.918;2023-07-09T03:32:47;101188.00;;;-50.40
11792;BMP180;5953;52.372;9.918;2023-07-09T03:35:15;101175.00;;;23.30
11792;BMP180;5953;52.372;9.918;2023-07-09T03:37:44;101190.00;;;23.30
11792;BMP180;5953;52.372;9.918;2023-07-09T03:40:20;101187.00;;;23.30
11792;BMP180;5953;52.372;9.918;2023-07-09T03:42:49;101205.00;;;23.30
11792;BMP180;5953;52.372;9.918;2023-07-09T03:45:16;101200.00;;;23.30
11792;BMP180;5953;52.372;9.918;2023-07-09T03:47:44;101208.00;;;23.30
11792;BMP180;5953;52.372;9.918;2023-07-09T03:50:12;101201.00;;;23.30
11792;BMP180;5953;52.372;9.918;2023-07-09T03:52:40;101203.00;;;23.30
11792;BMP180;5953;52.372;9.918;2023-07-09T03:55:10;101209.00;;;23.30
11792;BMP180;5953;52.372;9.918;2023-07-09T03:57:37;101208.00;;;23.30
11792;BMP180;5953;52.372;9.918;2023-07-09T04:00:06;101208.00;;;23.30
11792;BMP180;5953;52.372;9.918;2023-07-09T04:02:36;101203.00;;;23.30
11792;BMP180;5953;52.372;9.918;2023-07-09T04:05:05;101200.00;;;23.30
11792;BMP180;5953;52.372;9.918;2023-07-09T04:07:33;101199.00;;;23.30
11792;BMP180;5953;52.372;9.918;2023-07-09T04:10:01;101212.00;;;23.30
11792;BMP180;5953;52.372;9.918;2023-07-09T04:12:30;101197.00;;;23.30
11792;BMP180;5953;52.372;9.918;2023-07-09T04:14:58;101201.00;;;23.30
11792;BMP180;5953;52.372;9.918;2023-07-09T04:17:25;101209.00;;;23.30
11792;BMP180;5953;52.372;9.918;2023-07-09T04:19:53;101203.00;;;23.30
11792;BMP180;5953;52.372;9.918;2023-07-09T04:22:21;101202.00;;;23.30
11792;BMP180;5953;52.372;9.918;2023-07-09T04:24:49;101205.00;;;23.30
11792;BMP180;5953;52.372;9.918;2023-07-09T04:27:18;101215.00;;;23.30
11792;BMP180;5953;52.372;9.918;2023-07-09T04:29:48;101211.00;;;23.30
11792;BMP180;5953;52.372;9.918;2023-07-09T04:32:17;101206.00;;;23.30
11792;BMP180;5953;52.372;9.918;2023-07-09T04:34:45;101201.00;;;23.30
11792;BMP180;5953;52.372;9.918;2023-07-09T04:37:13;101212.00;;;23.40
11792;BMP180;5953;52.372;9.918;2023-07-09T04:39:43;101210.00;;;23.50
11792;BMP180;5953;52.372;9.918;2023-07-09T04:42:12;101208.00;;;23.50
11792;BMP180;5953;52.372;9.918;2023-07-09T04:44:41;101205.00;;;23.50
11792;BMP180;5953;52.372;9.918;2023-07-09T04:47:10;101208.00;;;23.60
11792;BMP180;5953;52.372;9.918;2023-07-09T04:49:39;101200.00;;;23.70
11792;BMP180;5953;52.372;9.918;2023-07-09T04:52:08;101212.00;;;23.80
11792;BMP180;5953;52.372;9.918;2023-07-09T04:54:39;101204.00;;;229.40
11792;BMP180;5953;52.372;9.918;2023-07-09T04:57:10;133861.00;;;24.00
11792;BMP180;5953;52.372;9.918;2023-07-09T04:59:38;101203.00;;;24.10
11792;BMP180;5953;52.372;9.918;2023-07-09T05:02:07;101208.00;;;24.20
11792;BMP180;5953;52.372;9.918;2023-07-09T05:04:37;101205.00;;;24.30
11792;BMP180;5953;52.372;9.918;2023-07-09T05:07:05;101212.00;;;24.30
11792;BMP180;5953;52.372;9.918;2023-07-09T05:09:33;101206.00;;;24.40
11792;BMP180;5953;52.372;9.918;2023-07-09T05:12:01;101210.00;;;24.30
11792;BMP180;5953;52.372;9.918;2023-07-09T05:14:29;80413.00;;;24.60
11792;BMP180;5953;52.372;9.918;2023-07-09T05:16:56;101209.00;;;24.60
11792;BMP180;5953;52.372;9.918;2023-07-09T05:19:24;101207.00;;;24.80
11792;BMP180;5953;52.372;9.918;2023-07-09T05:21:53;101211.00;;;24.80
11792;BMP180;5953;52.372;9.918;2023-07-09T05:24:21;101198.00;;;25.00
11792;BMP180;5953;52.372;9.918;2023-07-09T05:26:52;101210.00;;;25.00
11792;BMP180;5953;52.372;9.918;2023-07-09T05:29:19;101216.00;;;25.10
11792;BMP180;5953;52.372;9.918;2023-07-09T05:31:47;101210.00;;;25.20
11792;BMP180;5953;52.372;9.918;2023-07-09T05:34:15;171006.00;;;229.40
11792;BMP180;5953;52.372;9.918;2023-07-09T05:36:43;235518.00;;;229.40
11792;BMP180;5953;52.372;9.918;2023-07-09T05:39:12;235518.00;;;229.40
11792;BMP180;5953;52.372;9.918;2023-07-09T05:41:40;235518.00;;;229.40
11792;BMP180;5953;52.372;9.918;2023-07-09T05:44:08;235518.00;;;229.40
11792;BMP180;5953;52.372;9.918;2023-07-09T05:46:36;235518.00;;;229.40
11792;BMP180;5953;52.372;9.918;2023-07-09T05:49:05;235518.00;;;229.40
11792;BMP180;5953;52.372;9.918;2023-07-09T05:51:34;235518.00;;;229.40
11792;BMP180;5953;52.372;9.918;2023-07-09T05:54:01;235518.00;;;229.40
11792;BMP180;5953;52.372;9.918;2023-07-09T05:56:31;235518.00;;;229.40
11792;BMP180;5953;52.372;9.918;2023-07-09T05:58:59;235518.00;;;229.40
11792;BMP180;5953;52.372;9.918;2023-07-09T06:01:27;235518.00;;;229.40
11792;BMP180;5953;52.372;9.918;2023-07-09T06:03:55;235518.00;;;229.40
11792;BMP180;5953;52.372;9.918;2023-07-09T06:06:23;235518.00;;;229.40
11792;BMP180;5953;52.372;9.918;2023-07-09T06:08:53;235518.00;;;229.40
11792;BMP180;5953;52.372;9.918;2023-07-09T06:11:21;235518.00;;;229.40
11792;BMP180;5953;52.372;9.918;2023-07-09T06:13:51;235518.00;;;229.40
11792;BMP180;5953;52.372;9.918;2023-07-09T06:16:19;235518.00;;;229.40
11792;BMP180;5953;52.372;9.918;2023-07-09T06:18:47;235518.00;;;229.40
11792;BMP180;5953;52.372;9.918;2023-07-09T06:21:15;235518.00;;;229.40
11792;BMP180;5953;52.372;9.918;2023-07-09T06:23:44;235518.00;;;229.40
11792;BMP180;5953;52.372;9.918;2023-07-09T06:26:12;235518.00;;;229.40
11792;BMP180;5953;52.372;9.918;2023-07-09T06:28:40;235518.00;;;229.40
11792;BMP180;5953;52.372;9.918;2023-07-09T06:31:09;235518.00;;;229.40
11792;BMP180;5953;52.372;9.918;2023-07-09T06:33:37;235518.00;;;229.40
11792;BMP180;5953;52.372;9.918;2023-07-09T06:36:05;235518.00;;;229.40
11792;BMP180;5953;52.372;9.918;2023-07-09T06:38:33;235518.00;;;229.40
11792;BMP180;5953;52.372;9.918;2023-07-09T06:41:01;235518.00;;;229.40
11792;BMP180;5953;52.372;9.918;2023-07-09T06:43:29;235518.00;;;229.40
11792;BMP180;5953;52.372;9.918;2023-07-09T06:45:59;235518.00;;;229.40
11792;BMP180;5953;52.372;9.918;2023-07-09T06:48:29;235518.00;;;229.40
11792;BMP180;5953;52.372;9.918;2023-07-09T06:50:58;235518.00;;;229.40
11792;BMP180;5953;52.372;9.918;2023-07-09T06:53:27;235518.00;;;229.40
11792;BMP180;5953;52.372;9.918;2023-07-09T06:55:56;235518.00;;;229.40
11792;BMP180;5953;52.372;9.918;2023-07-09T06:58:26;235518.00;;;229.40
11792;BMP180;5953;52.372;9.918;2023-07-09T07:00:55;235518.00;;;229.40
11792;BMP180;5953;52.372;9.918;2023-07-09T07:03:24;235518.00;;;229.40
11792;BMP180;5953;52.372;9.918;2023-07-09T07:05:53;235518.00;;;229.40
11792;BMP180;5953;52.372;9.918;2023-07-09T07:08:23;235518.00;;;229.40
11792;BMP180;5953;52.372;9.918;2023-07-09T07:10:55;235518.00;;;229.40
11792;BMP180;5953;52.372;9.918;2023-07-09T07:13:28;235518.00;;;229.40
11792;BMP180;5953;52.372;9.918;2023-07-09T07:15:56;235518.00;;;229.40
11792;BMP180;5953;52.372;9.918;2023-07-09T07:18:24;235518.00;;;229.40
11792;BMP180;5953;52.372;9.918;2023-07-09T07:20:53;235518.00;;;229.40
11792;BMP180;5953;52.372;9.918;2023-07-09T07:23:21;235518.00;;;229.40
11792;BMP180;5953;52.372;9.918;2023-07-09T07:25:50;235518.00;;;229.40
11792;BMP180;5953;52.372;9.918;2023-07-09T07:28:18;235518.00;;;229.40
11792;BMP180;5953;52.372;9.918;2023-07-09T07:30:47;235518.00;;;229.40
11792;BMP180;5953;52.372;9.918;2023-07-09T07:33:15;235518.00;;;229.40
11792;BMP180;5953;52.372;9.918;2023-07-09T07:35:42;235518.00;;;229.40
11792;BMP180;5953;52.372;9.918;2023-07-09T07:38:32;235518.00;;;229.40
11792;BMP180;5953;52.372;9.918;2023-07-09T07:41:00;235518.00;;;229.40
11792;BMP180;5953;52.372;9.918;2023-07-09T07:43:28;235518.00;;;229.40
11792;BMP180;5953;52.372;9.918;2023-07-09T07:45:56;235518.00;;;229.40
11792;BMP180;5953;52.372;9.918;2023-07-09T07:48:24;235518.00;;;229.40
11792;BMP180;5953;52.372;9.918;2023-07-09T07:50:58;235518.00;;;229.40
11792;BMP180;5953;52.372;9.918;2023-07-09T07:53:26;235518.00;;;229.40
11792;BMP180;5953;52.372;9.918;2023-07-09T07:55:57;235518.00;;;229.40
11792;BMP180;5953;52.372;9.918;2023-07-09T07:58:25;235518.00;;;229.40
11792;BMP180;5953;52.372;9.918;2023-07-09T08:00:55;235518.00;;;229.40
11792;BMP180;5953;52.372;9.918;2023-07-09T08:03:23;235518.00;;;229.40
11792;BMP180;5953;52.372;9.918;2023-07-09T08:05:52;235518.00;;;229.40
11792;BMP180;5953;52.372;9.918;2023-07-09T08:08:20;235518.00;;;229.40
11792;BMP180;5953;52.372;9.918;2023-07-09T08:10:49;235518.00;;;229.40
11792;BMP180;5953;52.372;9.918;2023-07-09T08:13:18;235518.00;;;229.40
11792;BMP180;5953;52.372;9.918;2023-07-09T08:15:46;235518.00;;;229.40
11792;BMP180;5953;52.372;9.918;2023-07-09T08:18:15;235518.00;;;229.40
11792;BMP180;5953;52.372;9.918;2023-07-09T08:20:43;235518.00;;;229.40
11792;BMP180;5953;52.372;9.918;2023-07-09T08:23:11;235518.00;;;229.40
11792;BMP180;5953;52.372;9.918;2023-07-09T08:25:39;235518.00;;;229.40
11792;BMP180;5953;52.372;9.918;2023-07-09T08:28:07;235518.00;;;229.40
11792;BMP180;5953;52.372;9.918;2023-07-09T08:30:36;235518.00;;;229.40
11792;BMP180;5953;52.372;9.918;2023-07-09T08:33:04;235518.00;;;229.40
11792;BMP180;5953;52.372;9.918;2023-07-09T08:35:32;235518.00;;;229.40
11792;BMP180;5953;52.372;9.918;2023-07-09T08:38:02;235518.00;;;229.40
11792;BMP180;5953;52.372;9.918;2023-07-09T08:40:31;235518.00;;;229.40
11792;BMP180;5953;52.372;9.918;2023-07-09T08:43:05;235518.00;;;229.40
11792;BMP180;5953;52.372;9.918;2023-07-09T08:45:41;235518.00;;;229.40
11792;BMP180;5953;52.372;9.918;2023-07-09T08:48:16;235518.00;;;229.40
11792;BMP180;5953;52.372;9.918;2023-07-09T08:50:48;235518.00;;;229.40
11792;BMP180;5953;52.372;9.918;2023-07-09T08:53:20;235518.00;;;229.40
11792;BMP180;5953;52.372;9.918;2023-07-09T08:55:50;235518.00;;;229.40
11792;BMP180;5953;52.372;9.918;2023-07-09T08:58:23;235518.00;;;229.40
11792;BMP180;5953;52.372;9.918;2023-07-09T09:00:55;235518.00;;;229.40
11792;BMP180;5953;52.372;9.918;2023-07-09T09:03:31;235518.00;;;229.40
11792;BMP180;5953;52.372;9.918;2023-07-09T09:06:11;235518.00;;;229.40
11792;BMP180;5953;52.372;9.918;2023-07-09T09:08:40;235518.00;;;229.40
11792;BMP180;5953;52.372;9.918;2023-07-09T09:11:14;235518.00;;;229.40
11792;BMP180;5953;52.372;9.918;2023-07-09T09:13:45;235518.00;;;229.40
11792;BMP180;5953;52.372;9.918;2023-07-09T09:16:23;235518.00;;;229.40
11792;BMP180;5953;52.372;9.918;2023-07-09T09:18:55;235518.00;;;229.40
11792;BMP180;5953;52.372;9.918;2023-07-09T09:21:27;235518.00;;;229.40
11792;BMP180;5953;52.372;9.918;2023-07-09T09:23:58;235518.00;;;229.40
11792;BMP180;5953;52.372;9.918;2023-07-09T09:26:32;235518.00;;;229.40
11792;BMP180;5953;52.372;9.918;2023-07-09T09:29:09;235518.00;;;229.40
11792;BMP180;5953;52.372;9.918;2023-07-09T09:31:40;235518.00;;;229.40
11792;BMP180;5953;52.372;9.918;2023-07-09T09:34:17;235518.00;;;229.40
11792;BMP180;5953;52.372;9.918;2023-07-09T09:36:45;235518.00;;;229.40
11792;BMP180;5953;52.372;9.918;2023-07-09T09:39:13;235518.00;;;229.40
11792;BMP180;5953;52.372;9.918;2023-07-09T09:41:43;235518.00;;;229.40
11792;BMP180;5953;52.372;9.918;2023-07-09T09:44:18;235518.00;;;229.40
11792;BMP180;5953;52.372;9.918;2023-07-09T09:46:49;235518.00;;;229.40
11792;BMP180;5953;52.372;9.918;2023-07-09T09:49:17;235518.00;;;229.40
11792;BMP180;5953;52.372;9.918;2023-07-09T09:51:47;235518.00;;;229.40
11792;BMP180;5953;52.372;9.918;2023-07-09T09:54:18;235518.00;;;229.40
11792;BMP180;5953;52.372;9.918;2023-07-09T09:56:48;235518.00;;;229.40
11792;BMP180;5953;52.372;9.918;2023-07-09T09:59:18;235518.00;;;229.40
11792;BMP180;5953;52.372;9.918;2023-07-09T10:01:47;235518.00;;;229.40
11792;BMP180;5953;52.372;9.918;2023-07-09T10:04:19;235518.00;;;229.40
11792;BMP180;5953;52.372;9.918;2023-07-09T10:06:49;235518.00;;;229.40
11792;BMP180;5953;52.372;9.918;2023-07-09T10:09:26;235518.00;;;229.40
11792;BMP180;5953;52.372;9.918;2023-07-09T10:12:00;235518.00;;;229.40
11792;BMP180;5953;52.372;9.918;2023-07-09T10:14:36;235518.00;;;229.40
11792;BMP180;5953;52.372;9.918;2023-07-09T10:17:13;235518.00;;;229.40
11792;BMP180;5953;52.372;9.918;2023-07-09T10:19:48;235518.00;;;229.40
11792;BMP180;5953;52.372;9.918;2023-07-09T10:22:28;235518.00;;;229.40
11792;BMP180;5953;52.372;9.918;2023-07-09T10:25:05;235518.00;;;229.40
11792;BMP180;5953;52.372;9.918;2023-07-09T10:27:42;235518.00;;;229.40
11792;BMP180;5953;52.372;9.918;2023-07-09T10:30:27;235518.00;;;229.40
11792;BMP180;5953;52.372;9.918;2023-07-09T10:33:07;235518.00;;;229.40
11792;BMP180;5953;52.372;9.918;2023-07-09T10:35:43;235518.00;;;229.40
11792;BMP180;5953;52.372;9.918;2023-07-09T10:38:40;235518.00;;;229.40
11792;BMP180;5953;52.372;9.918;2023-07-09T10:41:12;235518.00;;;229.40
11792;BMP180;5953;52.372;9.918;2023-07-09T10:43:46;235518.00;;;229.40
11792;BMP180;5953;52.372;9.918;2023-07-09T10:46:17;235518.00;;;229.40
11792;BMP180;5953;52.372;9.918;2023-07-09T10:48:50;235518.00;;;229.40
11792;BMP180;5953;52.372;9.918;2023-07-09T10:51:23;235518.00;;;229.40
11792;BMP180;5953;52.372;9.918;2023-07-09T10:53:58;235518.00;;;229.40
11792;BMP180;5953;52.372;9.918;2023-07-09T10:56:27;235518.00;;;229.40
11792;BMP180;5953;52.372;9.918;2023-07-09T10:59:03;235518.00;;;229.40
11792;BMP180;5953;52.372;9.918;2023-07-09T11:01:37;235518.00;;;229.40
11792;BMP180;5953;52.372;9.918;2023-07-09T11:06:56;235518.00;;;229.40
11792;BMP180;5953;52.372;9.918;2023-07-09T11:09:29;235518.00;;;229.40
11792;BMP180;5953;52.372;9.918;2023-07-09T11:12:00;235518.00;;;229.40
11792;BMP180;5953;52.372;9.918;2023-07-09T11:14:33;235518.00;;;229.40
11792;BMP180;5953;52.372;9.918;2023-07-09T11:17:03;235518.00;;;229.40
11792;BMP180;5953;52.372;9.918;2023-07-09T11:19:32;235518.00;;;229.40
11792;BMP180;5953;52.372;9.918;2023-07-09T11:22:05;235518.00;;;229.40
11792;BMP180;5953;52.372;9.918;2023-07-09T11:24:36;235518.00;;;229.40
11792;BMP180;5953;52.372;9.918;2023-07-09T11:27:21;235518.00;;;229.40
11792;BMP180;5953;52.372;9.918;2023-07-09T11:29:58;235518.00;;;229.40
11792;BMP180;5953;52.372;9.918;2023-07-09T11:32:27;235518.00;;;229.40
11792;BMP180;5953;52.372;9.918;2023-07-09T11:35:06;235518.00;;;229.40
11792;BMP180;5953;52.372;9.918;2023-07-09T11:37:44;235518.00;;;229.40
11792;BMP180;5953;52.372;9.918;2023-07-09T11:40:13;235518.00;;;229.40
11792;BMP180;5953;52.372;9.918;2023-07-09T11:42:51;235518.00;;;229.40
11792;BMP180;5953;52.372;9.918;2023-07-09T11:45:23;235518.00;;;229.40
11792;BMP180;5953;52.372;9.918;2023-07-09T11:47:58;235518.00;;;229.40
11792;BMP180;5953;52.372;9.918;2023-07-09T11:50:34;235518.00;;;229.40
11792;BMP180;5953;52.372;9.918;2023-07-09T11:53:25;235518.00;;;229.40
11792;BMP180;5953;52.372;9.918;2023-07-09T11:55:56;235518.00;;;229.40
11792;BMP180;5953;52.372;9.918;2023-07-09T11:58:23;235518.00;;;229.40
11792;BMP180;5953;52.372;9.918;2023-07-09T12:00:55;235518.00;;;229.40
11792;BMP180;5953;52.372;9.918;2023-07-09T12:03:25;235518.00;;;229.40
11792;BMP180;5953;52.372;9.918;2023-07-09T12:05:56;235518.00;;;229.40
11792;BMP180;5953;52.372;9.918;2023-07-09T12:08:28;235518.00;;;229.40
11792;BMP180;5953;52.372;9.918;2023-07-09T12:10:56;235518.00;;;229.40
11792;BMP180;5953;52.372;9.918;2023-07-09T12:13:24;235518.00;;;229.40
11792;BMP180;5953;52.372;9.918;2023-07-09T12:15:52;235518.00;;;229.40
11792;BMP180;5953;52.372;9.918;2023-07-09T12:18:20;235518.00;;;229.40
11792;BMP180;5953;52.372;9.918;2023-07-09T12:20:49;235518.00;;;229.40
11792;BMP180;5953;52.372;9.918;2023-07-09T12:23:20;235518.00;;;229.40
11792;BMP180;5953;52.372;9.918;2023-07-09T12:25:51;235518.00;;;229.40
11792;BMP180;5953;52.372;9.918;2023-07-09T12:28:21;235518.00;;;229.40
11792;BMP180;5953;52.372;9.918;2023-07-09T12:30:50;235518.00;;;229.40
11792;BMP180;5953;52.372;9.918;2023-07-09T12:33:20;235518.00;;;229.40
11792;BMP180;5953;52.372;9.918;2023-07-09T12:35:53;235518.00;;;229.40
11792;BMP180;5953;52.372;9.918;2023-07-09T12:38:24;235518.00;;;229.40
11792;BMP180;5953;52.372;9.918;2023-07-09T12:40:54;235518.00;;;229.40
11792;BMP180;5953;52.372;9.918;2023-07-09T12:43:25;235518.00;;;229.40
11792;BMP180;5953;52.372;9.918;2023-07-09T12:45:53;235518.00;;;229.40
11792;BMP180;5953;52.372;9.918;2023-07-09T12:48:24;235518.00;;;229.40
11792;BMP180;5953;52.372;9.918;2023-07-09T12:50:55;235518.00;;;229.40
11792;BMP180;5953;52.372;9.918;2023-07-09T12:53:24;235518.00;;;229.40
11792;BMP180;5953;52.372;9.918;2023-07-09T12:55:56;235518.00;;;229.40
11792;BMP180;5953;52.372;9.918;2023-07-09T12:58:28;235518.00;;;229.40
11792;BMP180;5953;52.372;9.918;2023-07-09T13:00:57;235518.00;;;229.40
11792;BMP180;5953;52.372;9.918;2023-07-09T13:03:28;235518.00;;;229.40
11792;BMP180;5953;52.372;9.918;2023-07-09T13:05:58;235518.00;;;229.40
11792;BMP180;5953;52.372;9.918;2023-07-09T13:08:29;235518.00;;;229.40
11792;BMP180;5953;52.372;9.918;2023-07-09T13:10:59;235518.00;;;229.40
11792;BMP180;5953;52.372;9.918;2023-07-09T13:13:28;235518.00;;;229.40
11792;BMP180;5953;52.372;9.918;2023-07-09T13:15:57;235518.00;;;229.40
11792;BMP180;5953;52.372;9.918;2023-07-09T13:18:28;235518.00;;;229.40
11792;BMP180;5953;52.372;9.918;2023-07-09T13:20:58;235518.00;;;229.40
11792;BMP180;5953;52.372;9.918;2023-07-09T13:23:28;235518.00;;;229.40
11792;BMP180;5953;52.372;9.918;2023-07-09T13:25:56;235518.00;;;229.40
11792;BMP180;5953;52.372;9.918;2023-07-09T13:28:28;235518.00;;;229.40
11792;BMP180;5953;52.372;9.918;2023-07-09T13:30:58;235518.00;;;229.40
11792;BMP180;5953;52.372;9.918;2023-07-09T13:33:27;235518.00;;;229.40
11792;BMP180;5953;52.372;9.918;2023-07-09T13:35:55;235518.00;;;229.40
11792;BMP180;5953;52.372;9.918;2023-07-09T13:38:24;235518.00;;;229.40
11792;BMP180;5953;52.372;9.918;2023-07-09T13:40:54;235518.00;;;229.40
11792;BMP180;5953;52.372;9.918;2023-07-09T13:43:28;235518.00;;;229.40
11792;BMP180;5953;52.372;9.918;2023-07-09T13:45:56;235518.00;;;229.40
11792;BMP180;5953;52.372;9.918;2023-07-09T13:48:25;235518.00;;;229.40
11792;BMP180;5953;52.372;9.918;2023-07-09T13:50:54;235518.00;;;229.40
11792;BMP180;5953;52.372;9.918;2023-07-09T13:53:24;235518.00;;;229.40
11792;BMP180;5953;52.372;9.918;2023-07-09T13:55:53;235518.00;;;229.40
11792;BMP180;5953;52.372;9.918;2023-07-09T13:58:24;235518.00;;;229.40
11792;BMP180;5953;52.372;9.918;2023-07-09T14:00:56;235518.00;;;229.40
11792;BMP180;5953;52.372;9.918;2023-07-09T14:03:33;235518.00;;;229.40
11792;BMP180;5953;52.372;9.918;2023-07-09T14:06:02;235518.00;;;229.40
11792;BMP180;5953;52.372;9.918;2023-07-09T14:08:30;235518.00;;;229.40
11792;BMP180;5953;52.372;9.918;2023-07-09T14:10:58;235518.00;;;229.40
11792;BMP180;5953;52.372;9.918;2023-07-09T14:13:28;235518.00;;;229.40
11792;BMP180;5953;52.372;9.918;2023-07-09T14:15:59;235518.00;;;229.40
11792;BMP180;5953;52.372;9.918;2023-07-09T14:18:27;235518.00;;;229.40
11792;BMP180;5953;52.372;9.918;2023-07-09T14:20:56;235518.00;;;229.40
11792;BMP180;5953;52.372;9.918;2023-07-09T14:23:23;235518.00;;;229.40